createdAt,value
2023-03-11T00:00:55.170Z,3.20
2023-03-11T00:03:25.801Z,2.83
2023-03-11T00:05:53.557Z,3.05
2023-03-11T00:08:23.468Z,3.53
2023-03-11T00:10:55.623Z,3.00
2023-03-11T00:13:22.507Z,3.13
2023-03-11T00:15:50.877Z,3.25
2023-03-11T00:20:45.853Z,2.97
2023-03-11T00:25:40.442Z,3.33
2023-03-11T00:28:11.192Z,3.10
2023-03-11T00:30:39.064Z,2.92
2023-03-11T00:33:06.001Z,2.65
2023-03-11T00:35:33.677Z,2.88
2023-03-11T00:38:15.122Z,3.58
2023-03-11T00:40:42.146Z,2.85
2023-03-11T00:43:08.934Z,3.05
2023-03-11T00:45:35.544Z,2.67
2023-03-11T00:48:02.215Z,2.65
2023-03-11T00:50:34.076Z,2.63
2023-03-11T00:53:01.157Z,2.85
2023-03-11T00:55:30.315Z,3.00
2023-03-11T00:58:00.015Z,3.20
2023-03-11T01:00:28.392Z,3.15
2023-03-11T01:05:25.078Z,3.13
2023-03-11T01:07:51.712Z,3.40
2023-03-11T01:10:18.590Z,3.33
2023-03-11T01:12:45.317Z,3.03
2023-03-11T01:15:25.281Z,3.05
2023-03-11T01:17:52.114Z,2.83
2023-03-11T01:20:18.926Z,3.20
2023-03-11T01:22:45.695Z,3.45
2023-03-11T01:25:16.857Z,2.85
2023-03-11T01:27:43.513Z,2.72
2023-03-11T01:30:14.470Z,3.13
2023-03-11T01:32:41.094Z,2.90
2023-03-11T01:35:08.280Z,2.95
2023-03-11T01:37:34.849Z,3.35
2023-03-11T01:40:01.413Z,2.75
2023-03-11T01:42:28.008Z,3.30
2023-03-11T01:44:55.583Z,2.88
2023-03-11T01:47:42.423Z,3.10
2023-03-11T01:50:11.907Z,2.70
2023-03-11T01:52:38.585Z,2.80
2023-03-11T01:55:06.737Z,3.10
2023-03-11T01:57:33.359Z,3.33
2023-03-11T02:00:02.232Z,3.78
2023-03-11T02:02:34.144Z,3.40
2023-03-11T02:05:02.116Z,3.15
2023-03-11T02:07:30.100Z,3.47
2023-03-11T02:09:56.768Z,4.18
2023-03-11T02:12:23.417Z,3.55
2023-03-11T02:14:52.076Z,4.57
2023-03-11T02:17:18.794Z,3.70
2023-03-11T02:20:34.399Z,3.95
2023-03-11T02:23:01.786Z,4.05
2023-03-11T02:25:37.449Z,4.30
2023-03-11T02:28:06.071Z,4.72
2023-03-11T02:30:33.880Z,4.88
2023-03-11T02:33:01.425Z,4.68
2023-03-11T02:35:29.737Z,4.57
2023-03-11T02:37:56.285Z,4.95
2023-03-11T02:40:22.779Z,5.05
2023-03-11T02:42:55.160Z,5.35
2023-03-11T02:45:24.921Z,6.22
2023-03-11T02:47:53.302Z,5.43
2023-03-11T02:52:48.788Z,6.00
2023-03-11T02:55:16.189Z,5.95
2023-03-11T02:57:43.031Z,5.27
2023-03-11T03:00:14.321Z,5.72
2023-03-11T03:02:41.907Z,5.90
2023-03-11T03:05:08.805Z,5.38
2023-03-11T03:07:35.365Z,5.68
2023-03-11T03:10:02.106Z,5.30
2023-03-11T03:12:28.659Z,4.55
2023-03-11T03:14:55.204Z,5.13
2023-03-11T03:17:21.808Z,6.07
2023-03-11T03:19:48.455Z,5.55
2023-03-11T03:22:15.066Z,5.75
2023-03-11T03:24:41.797Z,4.55
2023-03-11T03:27:08.400Z,5.60
2023-03-11T03:29:35.018Z,4.65
2023-03-11T03:32:01.672Z,4.10
2023-03-11T03:34:28.277Z,4.57
2023-03-11T03:36:54.839Z,4.60
2023-03-11T03:39:21.445Z,4.97
2023-03-11T03:41:47.990Z,5.43
2023-03-11T03:44:14.695Z,5.43
2023-03-11T03:46:41.245Z,5.75
2023-03-11T03:49:07.956Z,4.95
2023-03-11T03:51:34.680Z,5.15
2023-03-11T03:54:01.238Z,4.78
2023-03-11T03:56:27.813Z,5.95
2023-03-11T03:58:54.450Z,4.78
2023-03-11T04:01:21.608Z,5.57
2023-03-11T04:03:48.449Z,5.28
2023-03-11T04:06:23.593Z,6.05
2023-03-11T04:08:54.500Z,4.82
2023-03-11T04:11:22.092Z,5.15
2023-03-11T04:13:48.772Z,5.93
2023-03-11T04:16:18.229Z,5.28
2023-03-11T04:18:44.928Z,5.75
2023-03-11T04:21:11.579Z,5.35
2023-03-11T04:23:38.181Z,4.85
2023-03-11T04:26:04.858Z,4.55
2023-03-11T04:28:31.851Z,4.13
2023-03-11T04:30:58.537Z,3.92
2023-03-11T04:33:25.357Z,4.38
2023-03-11T04:35:52.007Z,4.18
2023-03-11T04:38:18.687Z,4.45
2023-03-11T04:40:45.310Z,4.32
2023-03-11T04:43:11.885Z,4.32
2023-03-11T04:45:39.685Z,3.88
2023-03-11T04:48:06.299Z,3.30
2023-03-11T04:50:32.945Z,3.33
2023-03-11T04:52:59.477Z,3.30
2023-03-11T04:55:26.177Z,3.22
2023-03-11T04:57:52.710Z,2.80
2023-03-11T05:00:24.675Z,3.08
2023-03-11T05:02:51.361Z,3.20
2023-03-11T05:05:19.523Z,2.67
2023-03-11T05:07:46.245Z,2.50
2023-03-11T05:10:13.049Z,2.83
2023-03-11T05:12:39.673Z,3.10
2023-03-11T05:15:06.953Z,2.72
2023-03-11T05:17:33.512Z,3.40
2023-03-11T05:20:00.106Z,2.88
2023-03-11T05:22:26.703Z,2.55
2023-03-11T05:24:53.278Z,2.33
2023-03-11T05:27:21.214Z,2.35
2023-03-11T05:29:47.885Z,2.42
2023-03-11T05:32:14.553Z,2.10
2023-03-11T05:34:41.625Z,2.10
2023-03-11T05:37:09.043Z,2.65
2023-03-11T05:39:37.733Z,2.60
2023-03-11T05:42:07.916Z,2.40
2023-03-11T05:44:34.567Z,2.10
2023-03-11T05:47:01.475Z,2.08
2023-03-11T05:49:28.140Z,2.13
2023-03-11T05:51:56.744Z,2.33
2023-03-11T05:54:24.722Z,2.17
2023-03-11T05:56:51.304Z,2.42
2023-03-11T05:59:18.164Z,2.17
2023-03-11T06:01:44.794Z,2.00
2023-03-11T06:04:12.028Z,2.10
2023-03-11T06:06:41.088Z,2.40
2023-03-11T06:09:12.188Z,2.10
2023-03-11T06:11:38.760Z,1.85
2023-03-11T06:14:05.618Z,1.90
2023-03-11T06:16:32.289Z,2.60
2023-03-11T06:19:00.928Z,2.40
2023-03-11T06:21:28.113Z,2.58
2023-03-11T06:23:54.785Z,2.58
2023-03-11T06:26:22.326Z,2.83
2023-03-11T06:28:50.114Z,2.83
2023-03-11T06:31:19.706Z,3.63
2023-03-11T06:33:47.014Z,3.15
2023-03-11T06:36:15.592Z,3.03
2023-03-11T06:38:43.256Z,2.00
2023-03-11T06:41:10.353Z,2.08
2023-03-11T06:43:37.043Z,1.95
2023-03-11T06:46:17.341Z,2.65
2023-03-11T06:48:45.803Z,2.88
2023-03-11T06:51:12.838Z,2.38
2023-03-11T06:53:39.514Z,2.20
2023-03-11T06:56:11.752Z,2.10
2023-03-11T06:58:39.826Z,2.13
2023-03-11T07:01:16.362Z,2.30
2023-03-11T07:03:43.518Z,2.70
2023-03-11T07:06:15.149Z,2.83
2023-03-11T07:08:41.920Z,2.00
2023-03-11T07:11:19.166Z,2.33
2023-03-11T07:13:46.145Z,2.30
2023-03-11T07:16:21.104Z,2.42
2023-03-11T07:18:48.936Z,2.53
2023-03-11T07:21:17.566Z,2.00
2023-03-11T07:23:44.672Z,2.20
2023-03-11T07:26:13.412Z,2.28
2023-03-11T07:28:40.379Z,2.60
2023-03-11T07:31:10.521Z,2.20
2023-03-11T07:33:38.333Z,1.98
2023-03-11T07:36:06.813Z,2.47
2023-03-11T07:38:33.417Z,2.20
2023-03-11T07:41:00.247Z,3.08
2023-03-11T07:43:26.839Z,2.85
2023-03-11T07:45:55.007Z,2.20
2023-03-11T07:48:21.642Z,2.35
2023-03-11T07:50:48.185Z,2.58
2023-03-11T07:53:14.736Z,2.15
2023-03-11T07:55:41.267Z,2.28
2023-03-11T07:58:07.882Z,3.08
2023-03-11T08:00:34.455Z,2.65
2023-03-11T08:03:01.464Z,2.08
2023-03-11T08:05:28.028Z,2.25
2023-03-11T08:07:54.706Z,2.30
2023-03-11T08:10:21.271Z,2.53
2023-03-11T08:12:47.846Z,2.90
2023-03-11T08:15:14.446Z,3.22
2023-03-11T08:17:40.969Z,2.65
2023-03-11T08:20:08.926Z,2.92
2023-03-11T08:22:36.886Z,2.90
2023-03-11T08:25:03.819Z,2.58
2023-03-11T08:27:30.396Z,2.20
2023-03-11T08:29:58.233Z,2.25
2023-03-11T08:32:24.896Z,1.98
2023-03-11T08:34:51.616Z,1.98
2023-03-11T08:37:18.398Z,2.00
2023-03-11T08:39:44.970Z,1.60
2023-03-11T08:42:11.673Z,1.77
2023-03-11T08:44:38.316Z,2.10
2023-03-11T08:47:05.020Z,1.80
2023-03-11T08:49:31.694Z,1.90
2023-03-11T08:51:58.288Z,2.13
2023-03-11T08:54:25.223Z,1.73
2023-03-11T08:56:51.778Z,2.05
2023-03-11T08:59:18.377Z,1.67
2023-03-11T09:01:44.947Z,2.10
2023-03-11T09:04:12.157Z,1.70
2023-03-11T09:06:43.376Z,1.73
2023-03-11T09:09:12.983Z,1.63
2023-03-11T09:11:39.589Z,1.90
2023-03-11T09:14:06.182Z,1.80
2023-03-11T09:16:32.793Z,1.75
2023-03-11T09:19:03.611Z,2.17
2023-03-11T09:21:30.267Z,1.42
2023-03-11T09:23:56.789Z,1.75
2023-03-11T09:26:24.787Z,1.90
2023-03-11T09:28:51.427Z,1.73
2023-03-11T09:31:18.872Z,1.77
2023-03-11T09:33:46.474Z,1.63
2023-03-11T09:36:14.885Z,1.57
2023-03-11T09:41:19.478Z,2.28
2023-03-11T09:44:16.827Z,1.80
2023-03-11T09:47:07.757Z,2.05
2023-03-11T09:49:40.016Z,1.88
2023-03-11T09:52:09.427Z,1.92
2023-03-11T09:54:51.728Z,1.80
2023-03-11T09:57:24.406Z,1.83
2023-03-11T09:59:51.202Z,1.65
2023-03-11T10:02:20.477Z,1.70
2023-03-11T10:04:56.229Z,2.10
2023-03-11T10:07:32.292Z,1.80
2023-03-11T10:09:59.055Z,2.00
2023-03-11T10:13:10.772Z,1.80
2023-03-11T10:15:49.539Z,1.67
2023-03-11T10:18:47.851Z,2.28
2023-03-11T10:21:42.056Z,2.20
2023-03-11T10:24:26.975Z,2.10
2023-03-11T10:26:59.185Z,1.88
2023-03-11T10:29:47.871Z,1.85
2023-03-11T10:32:26.696Z,2.15
2023-03-11T10:35:06.353Z,1.50
2023-03-11T10:37:49.382Z,2.03
2023-03-11T10:40:35.432Z,1.80
2023-03-11T10:43:06.112Z,1.90
2023-03-11T10:45:43.342Z,2.28
2023-03-11T10:48:11.957Z,2.13
2023-03-11T10:50:47.196Z,1.98
2023-03-11T10:53:16.387Z,2.15
2023-03-11T10:55:51.789Z,1.80
2023-03-11T10:58:27.314Z,2.05
2023-03-11T11:01:14.671Z,1.60
2023-03-11T11:03:42.676Z,1.90
2023-03-11T11:06:21.517Z,2.13
2023-03-11T11:08:48.349Z,2.65
2023-03-11T11:11:23.606Z,2.35
2023-03-11T11:13:58.161Z,1.73
2023-03-11T11:16:25.113Z,1.90
2023-03-11T11:19:00.411Z,1.90
2023-03-11T11:21:35.290Z,2.40
2023-03-11T11:24:24.582Z,2.15
2023-03-11T11:27:15.577Z,1.70
2023-03-11T11:29:42.735Z,2.08
2023-03-11T11:32:15.353Z,2.25
2023-03-11T11:34:42.043Z,2.10
2023-03-11T11:37:14.125Z,1.85
2023-03-11T11:39:56.258Z,1.70
2023-03-11T11:42:24.378Z,1.80
2023-03-11T11:45:02.341Z,2.22
2023-03-11T11:47:34.406Z,1.65
2023-03-11T11:50:05.112Z,1.35
2023-03-11T11:52:36.481Z,1.88
2023-03-11T11:55:07.468Z,2.15
2023-03-11T11:57:34.082Z,1.90
2023-03-11T12:00:02.721Z,2.10
2023-03-11T12:02:46.780Z,1.90
2023-03-11T12:05:21.977Z,1.55
2023-03-11T12:08:10.429Z,1.92
2023-03-11T12:10:45.804Z,1.98
2023-03-11T12:13:24.546Z,1.75
2023-03-11T12:15:57.181Z,2.08
2023-03-11T12:18:29.484Z,1.80
2023-03-11T12:20:56.937Z,2.38
2023-03-11T12:23:45.340Z,1.42
2023-03-11T12:26:11.846Z,1.05
2023-03-11T12:28:48.201Z,1.40
2023-03-11T12:31:15.572Z,1.58
2023-03-11T12:33:59.175Z,1.30
2023-03-11T12:36:34.558Z,1.48
2023-03-11T12:39:05.665Z,1.10
2023-03-11T12:41:42.815Z,1.65
2023-03-11T12:44:24.691Z,1.33
2023-03-11T12:46:54.339Z,1.10
2023-03-11T12:49:32.726Z,1.33
2023-03-11T12:54:56.951Z,1.05
2023-03-11T12:57:31.079Z,1.02
2023-03-11T13:00:23.090Z,1.27
2023-03-11T13:03:13.341Z,1.23
2023-03-11T13:06:17.861Z,1.30
2023-03-11T13:08:57.438Z,1.30
2023-03-11T13:11:33.147Z,0.90
2023-03-11T13:14:18.549Z,0.88
2023-03-11T13:16:46.172Z,0.98
2023-03-11T13:19:32.054Z,1.20
2023-03-11T13:21:59.942Z,1.55
2023-03-11T13:24:26.982Z,1.00
2023-03-11T13:26:56.647Z,1.23
2023-03-11T13:29:36.941Z,1.00
2023-03-11T13:32:13.181Z,0.90
2023-03-11T13:35:06.108Z,1.20
2023-03-11T13:38:01.450Z,1.05
2023-03-11T13:40:40.749Z,0.93
2023-03-11T13:43:25.555Z,1.40
2023-03-11T13:46:02.231Z,1.10
2023-03-11T13:48:31.470Z,0.88
2023-03-11T13:51:05.381Z,1.50
2023-03-11T13:53:36.702Z,1.75
2023-03-11T13:56:03.403Z,1.40
2023-03-11T13:58:30.122Z,1.35
2023-03-11T14:00:58.790Z,1.40
2023-03-11T14:03:28.506Z,1.58
2023-03-11T14:06:05.421Z,1.35
2023-03-11T14:08:36.933Z,1.50
2023-03-11T14:11:04.849Z,0.95
2023-03-11T14:13:33.527Z,1.40
2023-03-11T14:16:08.180Z,1.50
2023-03-11T14:18:48.655Z,1.35
2023-03-11T14:21:18.361Z,1.42
2023-03-11T14:23:50.408Z,1.50
2023-03-11T14:26:26.660Z,1.30
2023-03-11T14:28:55.091Z,1.30
2023-03-11T14:31:24.483Z,0.93
2023-03-11T14:34:04.620Z,1.27
2023-03-11T14:36:44.432Z,1.67
2023-03-11T14:39:34.722Z,0.93
2023-03-11T14:42:06.925Z,1.33
2023-03-11T14:44:36.808Z,0.88
2023-03-11T14:47:21.170Z,1.20
2023-03-11T14:49:49.001Z,1.20
2023-03-11T14:52:27.682Z,1.35
2023-03-11T14:54:55.194Z,1.40
2023-03-11T14:57:26.985Z,1.30
2023-03-11T14:59:54.030Z,0.90
2023-03-11T15:02:51.664Z,1.17
2023-03-11T15:05:48.413Z,1.33
2023-03-11T15:08:18.657Z,1.00
2023-03-11T15:11:07.987Z,0.90
2023-03-11T15:13:35.752Z,1.30
2023-03-11T15:16:05.523Z,1.00
2023-03-11T15:18:37.825Z,1.15
2023-03-11T15:21:14.859Z,1.27
2023-03-11T15:23:49.582Z,1.05
2023-03-11T15:26:27.834Z,1.00
2023-03-11T15:28:58.569Z,0.82
2023-03-11T15:31:25.077Z,0.90
2023-03-11T15:33:51.840Z,0.80
2023-03-11T15:36:33.061Z,1.25
2023-03-11T15:39:51.098Z,1.00
2023-03-11T15:44:53.634Z,0.85
2023-03-11T15:47:22.712Z,1.05
2023-03-11T15:49:49.943Z,1.05
2023-03-11T15:52:19.270Z,1.13
2023-03-11T15:54:55.178Z,1.30
2023-03-11T15:57:27.470Z,0.93
2023-03-11T15:59:55.888Z,1.20
2023-03-11T16:02:24.768Z,1.15
2023-03-11T16:04:51.690Z,1.20
2023-03-11T16:07:21.778Z,1.23
2023-03-11T16:09:55.999Z,1.05
2023-03-11T16:12:23.970Z,0.98
2023-03-11T16:14:50.683Z,1.83
2023-03-11T16:17:19.034Z,1.65
2023-03-11T16:19:49.203Z,1.27
2023-03-11T16:22:22.130Z,1.20
2023-03-11T16:24:50.845Z,0.88
2023-03-11T16:27:18.097Z,0.90
2023-03-11T16:29:47.958Z,1.10
2023-03-11T16:32:14.848Z,1.20
2023-03-11T16:34:41.421Z,1.15
2023-03-11T16:37:08.704Z,1.20
2023-03-11T16:39:35.611Z,1.38
2023-03-11T16:42:02.302Z,1.40
2023-03-11T16:44:28.895Z,1.20
2023-03-11T16:46:55.541Z,1.20
2023-03-11T16:49:22.161Z,1.27
2023-03-11T16:51:48.723Z,1.73
2023-03-11T16:54:15.317Z,1.70
2023-03-11T16:56:42.005Z,1.45
2023-03-11T16:59:08.602Z,1.25
2023-03-11T17:01:38.623Z,1.05
2023-03-11T17:04:08.624Z,1.63
2023-03-11T17:06:35.288Z,1.65
2023-03-11T17:09:01.917Z,1.63
2023-03-11T17:11:30.644Z,1.75
2023-03-11T17:14:10.100Z,1.75
2023-03-11T17:16:42.028Z,1.60
2023-03-11T17:19:08.594Z,2.15
2023-03-11T17:21:35.198Z,2.15
2023-03-11T17:24:01.823Z,1.58
2023-03-11T17:26:30.847Z,2.00
2023-03-11T17:28:57.662Z,1.80
2023-03-11T17:31:24.272Z,1.65
2023-03-11T17:33:50.897Z,1.70
2023-03-11T17:36:18.196Z,1.60
2023-03-11T17:38:45.928Z,1.90
2023-03-11T17:41:17.190Z,2.40
2023-03-11T17:43:44.572Z,2.25
2023-03-11T17:46:14.504Z,2.15
2023-03-11T17:48:45.316Z,2.25
2023-03-11T17:51:14.363Z,2.15
2023-03-11T17:53:45.246Z,2.33
2023-03-11T17:56:13.842Z,2.47
2023-03-11T17:58:40.445Z,2.58
2023-03-11T18:01:09.715Z,2.47
2023-03-11T18:03:36.398Z,2.58
2023-03-11T18:06:05.284Z,2.53
2023-03-11T18:08:33.022Z,2.80
2023-03-11T18:11:03.101Z,2.55
2023-03-11T18:13:30.422Z,2.50
2023-03-11T18:15:59.142Z,2.60
2023-03-11T18:18:25.780Z,2.55
2023-03-11T18:20:52.491Z,2.35
2023-03-11T18:23:19.178Z,2.35
2023-03-11T18:25:51.037Z,2.38
2023-03-11T18:28:17.802Z,2.72
2023-03-11T18:30:44.383Z,2.53
2023-03-11T18:33:10.951Z,2.78
2023-03-11T18:35:37.555Z,2.42
2023-03-11T18:38:04.190Z,2.95
2023-03-11T18:40:30.765Z,2.80
2023-03-11T18:42:57.396Z,2.72
2023-03-11T18:45:25.141Z,2.80
2023-03-11T18:47:51.741Z,2.45
2023-03-11T18:50:18.535Z,2.55
2023-03-11T18:52:45.151Z,3.00
2023-03-11T18:55:11.871Z,2.67
2023-03-11T18:57:41.634Z,2.80
2023-03-11T19:00:08.854Z,2.55
2023-03-11T19:02:35.461Z,2.65
2023-03-11T19:05:02.645Z,3.10
2023-03-11T19:07:29.552Z,2.92
2023-03-11T19:09:56.115Z,3.00
2023-03-11T19:12:22.849Z,2.75
2023-03-11T19:14:49.448Z,2.90
2023-03-11T19:17:18.433Z,2.97
2023-03-11T19:19:45.166Z,2.78
2023-03-11T19:22:11.727Z,2.42
2023-03-11T19:24:38.496Z,2.50
2023-03-11T19:27:05.097Z,2.60
2023-03-11T19:29:31.717Z,2.63
2023-03-11T19:31:58.532Z,2.72
2023-03-11T19:34:27.160Z,2.60
2023-03-11T19:36:53.744Z,2.40
2023-03-11T19:39:20.357Z,2.40
2023-03-11T19:41:46.968Z,2.20
2023-03-11T19:44:13.666Z,2.50
2023-03-11T19:46:40.347Z,2.35
2023-03-11T19:49:07.482Z,2.60
2023-03-11T19:51:48.619Z,2.60
2023-03-11T19:54:16.649Z,2.60
2023-03-11T19:56:43.764Z,2.78
2023-03-11T19:59:10.355Z,2.70
2023-03-11T20:01:36.942Z,2.88
2023-03-11T20:04:04.377Z,2.80
2023-03-11T20:06:31.039Z,3.00
2023-03-11T20:08:57.715Z,2.92
2023-03-11T20:11:24.290Z,2.90
2023-03-11T20:13:50.885Z,3.20
2023-03-11T20:16:19.281Z,2.92
2023-03-11T20:18:49.218Z,2.50
2023-03-11T20:21:16.317Z,2.92
2023-03-11T20:23:42.974Z,3.00
2023-03-11T20:26:12.281Z,2.80
2023-03-11T20:28:39.311Z,2.80
2023-03-11T20:31:18.747Z,3.40
2023-03-11T20:33:46.111Z,4.68
2023-03-11T20:36:15.187Z,4.33
2023-03-11T20:38:41.930Z,4.50
2023-03-11T20:41:09.805Z,4.60
2023-03-11T20:43:40.193Z,4.22
2023-03-11T20:46:08.293Z,4.05
2023-03-11T20:48:36.099Z,4.25
2023-03-11T20:51:05.397Z,4.15
2023-03-11T20:53:32.183Z,3.80
2023-03-11T20:56:00.271Z,5.38
2023-03-11T20:58:26.834Z,5.30
2023-03-11T21:00:53.448Z,5.03
2023-03-11T21:03:20.163Z,5.82
2023-03-11T21:05:47.521Z,4.88
2023-03-11T21:08:14.219Z,3.55
2023-03-11T21:10:41.009Z,3.22
2023-03-11T21:13:07.748Z,3.03
2023-03-11T21:15:37.397Z,2.92
2023-03-11T21:18:04.308Z,3.17
2023-03-11T21:20:31.016Z,3.60
2023-03-11T21:22:57.636Z,3.20
2023-03-11T21:25:24.187Z,2.88
2023-03-11T21:27:50.741Z,4.30
2023-03-11T21:30:17.458Z,4.22
2023-03-11T21:32:44.196Z,4.30
2023-03-11T21:35:10.895Z,3.08
2023-03-11T21:37:37.665Z,3.53
2023-03-11T21:40:07.457Z,3.30
2023-03-11T21:42:34.176Z,3.30
2023-03-11T21:45:00.921Z,3.58
2023-03-11T21:47:27.632Z,3.70
2023-03-11T21:49:54.238Z,3.90
2023-03-11T21:52:21.050Z,4.10
2023-03-11T21:54:47.826Z,3.38
2023-03-11T21:57:14.520Z,3.22
2023-03-11T21:59:41.163Z,4.00
2023-03-11T22:02:14.298Z,3.10
2023-03-11T22:04:41.519Z,2.97
2023-03-11T22:07:08.751Z,3.10
2023-03-11T22:09:35.500Z,3.50
2023-03-11T22:12:02.460Z,2.65
2023-03-11T22:14:29.235Z,3.15
2023-03-11T22:16:56.225Z,3.00
2023-03-11T22:19:22.900Z,2.85
2023-03-11T22:21:49.644Z,2.75
2023-03-11T22:24:16.385Z,2.80
2023-03-11T22:26:42.956Z,2.78
2023-03-11T22:29:10.723Z,2.92
2023-03-11T22:31:39.127Z,2.97
2023-03-11T22:34:05.723Z,2.83
2023-03-11T22:36:32.285Z,3.00
2023-03-11T22:39:01.016Z,3.10
2023-03-11T22:41:27.637Z,3.00
